Time,TemperatureF,DewpointF,PressureIn,WindDirection,WindDirectionDegrees,WindSpeedMPH,WindSpeedGustMPH,Humidity,HourlyPrecipIn,Conditions,Clouds,dailyrainin,SoftwareType,DateUTC
2013-09-21 00:02:00,65.8,64.0,29.86,SSE,159,0.0,0.0,94,0.00,,,0.00,WeatherCatV1.21B27,2013-09-21 04:02:00,
2013-09-21 00:07:00,65.7,64.2,29.86,SSE,159,0.0,0.0,95,0.00,,,0.00,WeatherCatV1.21B27,2013-09-21 04:07:00,
2013-09-21 00:12:00,65.6,64.1,29.86,SSE,159,0.0,0.0,95,0.00,,,0.00,WeatherCatV1.21B27,2013-09-21 04:12:00,
2013-09-21 00:17:00,65.6,64.1,29.86,SSE,159,0.0,0.0,95,0.00,,,0.00,WeatherCatV1.21B27,2013-09-21 04:17:00,
2013-09-21 00:22:00,65.5,64.0,29.86,SSE,159,0.0,0.0,95,0.00,,,0.00,WeatherCatV1.21B27,2013-09-21 04:22:00,
2013-09-21 00:27:00,65.5,64.0,29.86,SSE,159,0.0,0.0,95,0.00,,,0.00,WeatherCatV1.21B27,2013-09-21 04:27:00,
2013-09-21 00:32:00,65.4,63.9,29.86,SSE,158,0.0,0.0,95,0.00,,,0.00,WeatherCatV1.21B27,2013-09-21 04:32:00,
2013-09-21 00:37:00,65.4,63.9,29.85,SSE,159,0.0,0.0,95,0.00,,,0.00,WeatherCatV1.21B27,2013-09-21 04:37:00,
2013-09-21 00:42:00,65.3,63.8,29.85,SSE,159,0.0,0.0,95,0.00,,,0.00,WeatherCatV1.21B27,2013-09-21 04:42:00,
2013-09-21 00:47:00,65.3,63.8,29.85,SSE,159,0.0,0.0,95,0.00,,,0.00,WeatherCatV1.21B27,2013-09-21 04:47:00,
2013-09-21 00:52:00,65.3,63.8,29.85,SSE,158,0.0,0.0,95,0.00,,,0.00,WeatherCatV1.21B27,2013-09-21 04:52:00,
2013-09-21 00:57:00,65.2,63.7,29.85,SSE,159,0.0,0.0,95,0.00,,,0.00,WeatherCatV1.21B27,2013-09-21 04:57:00,
2013-09-21 01:02:00,65.2,63.7,29.85,SSE,159,0.0,0.0,95,0.00,,,0.00,WeatherCatV1.21B27,2013-09-21 05:02:00,
2013-09-21 01:07:00,65.2,63.7,29.84,SSE,159,0.0,0.0,95,0.00,,,0.00,WeatherCatV1.21B27,2013-09-21 05:07:00,
2013-09-21 01:12:00,65.2,63.7,29.84,SSE,158,0.0,0.0,95,0.00,,,0.00,WeatherCatV1.21B27,2013-09-21 05:12:00,
2013-09-21 01:17:00,65.2,63.7,29.84,SSE,159,0.0,0.0,95,0.00,,,0.00,WeatherCatV1.21B27,2013-09-21 05:17:00,
2013-09-21 01:22:00,65.1,63.6,29.84,SSE,158,0.0,0.0,95,0.00,,,0.00,WeatherCatV1.21B27,2013-09-21 05:22:00,
2013-09-21 01:27:00,65.1,63.6,29.84,SSE,159,0.0,0.0,95,0.00,,,0.00,WeatherCatV1.21B27,2013-09-21 05:27:00,
2013-09-21 01:32:00,65.1,63.6,29.84,SSE,159,0.0,0.0,95,0.00,,,0.00,WeatherCatV1.21B27,2013-09-21 05:32:00,
2013-09-21 01:37:00,65.1,63.6,29.83,SSE,159,0.0,0.0,95,0.00,,,0.00,WeatherCatV1.21B27,2013-09-21 05:37:00,
2013-09-21 01:42:00,65.0,63.5,29.83,SSE,158,0.0,0.0,95,0.00,,,0.00,WeatherCatV1.21B27,2013-09-21 05:42:00,
2013-09-21 01:47:00,65.0,63.5,29.83,SSE,158,0.0,0.0,95,0.00,,,0.00,WeatherCatV1.21B27,2013-09-21 05:47:00,
2013-09-21 01:52:00,65.0,63.8,29.83,SSE,158,0.0,0.0,96,0.00,,,0.00,WeatherCatV1.21B27,2013-09-21 05:52:00,
2013-09-21 01:57:00,65.0,63.8,29.83,SSE,159,0.0,0.0,96,0.00,,,0.00,WeatherCatV1.21B27,2013-09-21 05:57:00,
2013-09-21 02:02:00,65.0,63.8,29.83,SSE,159,0.0,0.0,96,0.00,,,0.00,WeatherCatV1.21B27,2013-09-21 06:02:00,
2013-09-21 02:07:00,65.0,63.8,29.83,SSE,158,0.0,0.0,96,0.00,,,0.00,WeatherCatV1.21B27,2013-09-21 06:07:00,
2013-09-21 02:12:00,65.0,63.8,29.82,SSE,159,0.0,0.0,96,0.00,,,0.00,WeatherCatV1.21B27,2013-09-21 06:12:00,
2013-09-21 02:17:00,64.9,63.7,29.82,SSE,159,0.0,0.0,96,0.00,,,0.00,WeatherCatV1.21B27,2013-09-21 06:17:00,
2013-09-21 02:22:00,64.9,63.7,29.82,SSE,159,0.0,0.0,96,0.00,,,0.00,WeatherCatV1.21B27,2013-09-21 06:22:00,
2013-09-21 02:27:00,64.9,63.7,29.82,SSE,159,0.0,0.0,96,0.00,,,0.00,WeatherCatV1.21B27,2013-09-21 06:27:00,
2013-09-21 02:32:00,64.8,63.3,29.82,SSE,159,0.0,0.0,95,0.00,,,0.00,WeatherCatV1.21B27,2013-09-21 06:32:00,
2013-09-21 02:37:00,64.8,63.6,29.81,SSE,158,0.0,0.0,96,0.00,,,0.00,WeatherCatV1.21B27,2013-09-21 06:37:00,
2013-09-21 02:47:00,64.7,63.5,29.81,SSE,159,0.0,0.0,96,0.00,,,0.00,WeatherCatV1.21B27,2013-09-21 06:47:00,
2013-09-21 02:52:00,64.7,63.5,29.80,SSE,159,0.0,0.0,96,0.00,,,0.00,WeatherCatV1.21B27,2013-09-21 06:52:00,
2013-09-21 02:57:00,64.6,63.4,29.80,SSE,159,0.0,0.0,96,0.00,,,0.00,WeatherCatV1.21B27,2013-09-21 06:57:00,
2013-09-21 03:02:00,64.5,63.3,29.80,SSE,158,0.0,0.0,96,0.00,,,0.00,WeatherCatV1.21B27,2013-09-21 07:02:00,
2013-09-21 03:12:00,64.4,63.2,29.80,SSE,159,0.0,0.0,96,0.00,,,0.00,WeatherCatV1.21B27,2013-09-21 07:12:00,
2013-09-21 03:17:00,64.3,63.1,29.79,SSE,159,0.0,0.0,96,0.00,,,0.00,WeatherCatV1.21B27,2013-09-21 07:17:00,
2013-09-21 03:22:00,64.3,63.1,29.79,SSE,159,0.0,0.0,96,0.00,,,0.00,WeatherCatV1.21B27,2013-09-21 07:22:00,
2013-09-21 03:27:00,64.2,63.0,29.79,SSE,159,0.0,0.0,96,0.00,,,0.00,WeatherCatV1.21B27,2013-09-21 07:27:00,
2013-09-21 03:32:00,64.1,62.9,29.79,SSE,159,0.0,0.0,96,0.00,,,0.00,WeatherCatV1.21B27,2013-09-21 07:32:00,
2013-09-21 03:37:00,64.1,62.9,29.79,SSE,159,0.0,0.0,96,0.00,,,0.00,WeatherCatV1.21B27,2013-09-21 07:37:00,
2013-09-21 03:42:00,64.0,62.8,29.78,SSE,159,0.0,0.0,96,0.00,,,0.00,WeatherCatV1.21B27,2013-09-21 07:42:00,
2013-09-21 03:47:00,64.0,62.8,29.78,SSE,158,0.0,0.0,96,0.00,,,0.00,WeatherCatV1.21B27,2013-09-21 07:47:00,
2013-09-21 03:52:00,64.0,62.8,29.78,SSE,159,0.0,0.0,96,0.00,,,0.00,WeatherCatV1.21B27,2013-09-21 07:52:00,
2013-09-21 03:57:00,64.0,62.8,29.78,SSE,159,0.0,0.0,96,0.00,,,0.00,WeatherCatV1.21B27,2013-09-21 07:57:00,
2013-09-21 04:02:00,63.9,62.7,29.78,SSE,159,0.0,0.0,96,0.00,,,0.00,WeatherCatV1.21B27,2013-09-21 08:02:00,
2013-09-21 04:07:00,63.7,62.5,29.78,SSE,159,0.0,0.0,96,0.00,,,0.00,WeatherCatV1.21B27,2013-09-21 08:07:00,
2013-09-21 04:12:00,63.6,62.4,29.78,SSE,158,0.0,0.0,96,0.00,,,0.00,WeatherCatV1.21B27,2013-09-21 08:12:00,
2013-09-21 04:17:00,63.6,62.4,29.78,SSE,158,0.0,0.0,96,0.00,,,0.00,WeatherCatV1.21B27,2013-09-21 08:17:00,
2013-09-21 04:22:00,63.6,62.4,29.78,SSE,158,0.0,0.0,96,0.00,,,0.00,WeatherCatV1.21B27,2013-09-21 08:22:00,
2013-09-21 04:27:00,63.6,62.4,29.77,SSE,158,0.0,0.0,96,0.00,,,0.00,WeatherCatV1.21B27,2013-09-21 08:27:00,
2013-09-21 04:32:00,63.6,62.4,29.77,SSE,158,0.0,0.0,96,0.00,,,0.00,WeatherCatV1.21B27,2013-09-21 08:32:00,
2013-09-21 04:37:00,63.8,62.6,29.77,SSE,159,0.0,0.0,96,0.00,,,0.00,WeatherCatV1.21B27,2013-09-21 08:37:00,
2013-09-21 04:42:00,63.9,62.7,29.77,SSE,159,0.0,0.0,96,0.00,,,0.00,WeatherCatV1.21B27,2013-09-21 08:42:00,
2013-09-21 04:47:00,64.0,62.8,29.77,SSE,158,0.0,0.0,96,0.00,,,0.00,WeatherCatV1.21B27,2013-09-21 08:47:00,
2013-09-21 04:52:00,64.1,63.2,29.77,SSE,158,0.0,0.0,97,0.00,,,0.00,WeatherCatV1.21B27,2013-09-21 08:52:00,
2013-09-21 04:57:00,64.1,62.9,29.76,SSE,158,0.0,0.0,96,0.00,,,0.00,WeatherCatV1.21B27,2013-09-21 08:57:00,
2013-09-21 05:02:00,64.2,63.0,29.76,SSE,158,0.0,0.0,96,0.00,,,0.00,WeatherCatV1.21B27,2013-09-21 09:02:00,
2013-09-21 05:07:00,64.3,63.1,29.76,SSE,159,0.0,0.0,96,0.00,,,0.00,WeatherCatV1.21B27,2013-09-21 09:07:00,
2013-09-21 05:12:00,64.4,63.2,29.76,SSE,159,0.0,0.0,96,0.00,,,0.00,WeatherCatV1.21B27,2013-09-21 09:12:00,
2013-09-21 05:17:00,64.4,63.5,29.76,SSE,159,0.0,0.0,97,0.00,,,0.00,WeatherCatV1.21B27,2013-09-21 09:17:00,
2013-09-21 05:22:00,64.4,63.5,29.76,SSE,158,0.0,0.0,97,0.00,,,0.00,WeatherCatV1.21B27,2013-09-21 09:22:00,
2013-09-21 05:27:00,64.3,63.1,29.76,SSE,158,0.0,2.0,96,0.00,,,0.00,WeatherCatV1.21B27,2013-09-21 09:27:00,
2013-09-21 05:32:00,64.3,63.1,29.76,SSE,159,2.0,2.0,96,0.00,,,0.00,WeatherCatV1.21B27,2013-09-21 09:32:00,
2013-09-21 05:37:00,64.1,62.9,29.76,SSE,158,0.0,0.0,96,0.00,,,0.00,WeatherCatV1.21B27,2013-09-21 09:37:00,
2013-09-21 05:42:00,64.1,62.9,29.76,SSE,159,0.0,0.0,96,0.00,,,0.00,WeatherCatV1.21B27,2013-09-21 09:42:00,
2013-09-21 05:47:00,64.1,62.9,29.76,SSE,159,0.0,0.0,96,0.00,,,0.00,WeatherCatV1.21B27,2013-09-21 09:47:00,
2013-09-21 05:52:00,64.2,63.0,29.76,SSE,159,0.0,0.0,96,0.00,,,0.00,WeatherCatV1.21B27,2013-09-21 09:52:00,
2013-09-21 05:57:00,64.2,63.0,29.76,SSE,159,0.0,0.0,96,0.00,,,0.00,WeatherCatV1.21B27,2013-09-21 09:57:00,
2013-09-21 06:02:00,64.3,63.1,29.76,SSE,159,0.0,0.0,96,0.00,,,0.00,WeatherCatV1.21B27,2013-09-21 10:02:00,
2013-09-21 06:07:00,64.3,63.1,29.76,SSE,159,0.0,0.0,96,0.00,,,0.00,WeatherCatV1.21B27,2013-09-21 10:07:00,
2013-09-21 06:12:00,64.4,63.2,29.75,SSE,158,0.0,0.0,96,0.00,,,0.00,WeatherCatV1.21B27,2013-09-21 10:12:00,
2013-09-21 06:17:00,64.4,63.5,29.75,SSE,159,0.0,0.0,97,0.00,,,0.00,WeatherCatV1.21B27,2013-09-21 10:17:00,
2013-09-21 06:22:00,64.5,63.6,29.75,SSE,159,0.0,0.0,97,0.00,,,0.00,WeatherCatV1.21B27,2013-09-21 10:22:00,
2013-09-21 06:27:00,64.5,63.6,29.75,SSE,159,0.0,0.0,97,0.00,,,0.00,WeatherCatV1.21B27,2013-09-21 10:27:00,
2013-09-21 06:32:00,64.6,63.7,29.75,SSE,159,0.0,1.0,97,0.00,,,0.00,WeatherCatV1.21B27,2013-09-21 10:32:00,
2013-09-21 06:37:00,64.7,63.8,29.75,SSE,159,0.0,0.0,97,0.00,,,0.00,WeatherCatV1.21B27,2013-09-21 10:37:00,
2013-09-21 06:42:00,64.7,63.8,29.75,SSE,159,0.0,0.0,97,0.00,,,0.00,WeatherCatV1.21B27,2013-09-21 10:42:00,
2013-09-21 06:47:00,64.7,63.8,29.75,SSE,159,0.0,0.0,97,0.00,,,0.00,WeatherCatV1.21B27,2013-09-21 10:47:00,
2013-09-21 06:52:00,64.8,63.9,29.76,SSE,159,0.0,0.0,97,0.00,,,0.00,WeatherCatV1.21B27,2013-09-21 10:52:00,
2013-09-21 06:57:00,64.9,64.0,29.75,SSE,159,0.0,0.0,97,0.00,,,0.00,WeatherCatV1.21B27,2013-09-21 10:57:00,
2013-09-21 07:02:00,65.0,64.1,29.76,SSE,158,0.0,0.0,97,0.00,,,0.00,WeatherCatV1.21B27,2013-09-21 11:02:00,
2013-09-21 07:07:00,65.0,63.8,29.75,SSE,159,0.0,0.0,96,0.00,,,0.00,WeatherCatV1.21B27,2013-09-21 11:07:00,
2013-09-21 07:12:00,65.1,64.2,29.75,SSE,159,0.0,0.0,97,0.00,,,0.00,WeatherCatV1.21B27,2013-09-21 11:12:00,
2013-09-21 07:17:00,65.2,64.3,29.75,SSE,158,0.0,1.0,97,0.00,,,0.00,WeatherCatV1.21B27,2013-09-21 11:17:00,
2013-09-21 07:22:00,65.2,64.3,29.75,ENE,67,0.0,4.0,97,0.00,,,0.00,WeatherCatV1.21B27,2013-09-21 11:22:00,
2013-09-21 07:27:00,65.3,64.1,29.75,ENE,67,0.0,0.0,96,0.00,,,0.00,WeatherCatV1.21B27,2013-09-21 11:27:00,
2013-09-21 07:32:00,65.4,64.2,29.75,ENE,67,1.0,3.0,96,0.00,,,0.01,WeatherCatV1.21B27,2013-09-21 11:32:00,
2013-09-21 07:37:00,65.4,64.2,29.75,ENE,67,0.0,1.0,96,0.00,,,0.01,WeatherCatV1.21B27,2013-09-21 11:37:00,
2013-09-21 07:42:00,65.5,64.3,29.75,ENE,67,0.0,2.0,96,0.00,,,0.01,WeatherCatV1.21B27,2013-09-21 11:42:00,
2013-09-21 07:47:00,65.6,64.4,29.75,ENE,67,0.0,0.0,96,0.00,,,0.01,WeatherCatV1.21B27,2013-09-21 11:47:00,
2013-09-21 07:52:00,65.7,64.5,29.75,ENE,67,0.0,0.0,96,0.00,,,0.01,WeatherCatV1.21B27,2013-09-21 11:52:00,
2013-09-21 07:57:00,65.7,64.5,29.75,ENE,67,0.0,0.0,96,0.00,,,0.01,WeatherCatV1.21B27,2013-09-21 11:57:00,
2013-09-21 08:02:00,65.8,64.6,29.75,ENE,67,0.0,0.0,96,0.00,,,0.01,WeatherCatV1.21B27,2013-09-21 12:02:00,
2013-09-21 08:07:00,65.8,64.6,29.75,ENE,67,0.0,0.0,96,0.00,,,0.01,WeatherCatV1.21B27,2013-09-21 12:07:00,
2013-09-21 08:12:00,65.8,64.6,29.75,ENE,67,0.0,0.0,96,0.00,,,0.01,WeatherCatV1.21B27,2013-09-21 12:12:00,
2013-09-21 08:17:00,65.8,64.6,29.76,ENE,67,0.0,0.0,96,0.00,,,0.02,WeatherCatV1.21B27,2013-09-21 12:17:00,
2013-09-21 08:22:00,65.8,64.6,29.76,ENE,67,0.0,0.0,96,0.00,,,0.02,WeatherCatV1.21B27,2013-09-21 12:22:00,
2013-09-21 08:27:00,65.8,64.6,29.76,ENE,67,0.0,0.0,96,0.00,,,0.02,WeatherCatV1.21B27,2013-09-21 12:27:00,
2013-09-21 08:32:00,65.8,64.6,29.76,ENE,67,0.0,0.0,96,0.00,,,0.02,WeatherCatV1.21B27,2013-09-21 12:32:00,
2013-09-21 08:37:00,65.9,64.7,29.76,ENE,67,0.0,0.0,96,0.00,,,0.02,WeatherCatV1.21B27,2013-09-21 12:37:00,
2013-09-21 08:42:00,65.9,64.7,29.76,ENE,67,0.0,0.0,96,0.00,,,0.02,WeatherCatV1.21B27,2013-09-21 12:42:00,
2013-09-21 08:47:00,65.9,64.7,29.75,ENE,67,0.0,0.0,96,0.00,,,0.02,WeatherCatV1.21B27,2013-09-21 12:47:00,
2013-09-21 08:52:00,65.9,64.7,29.75,ENE,67,0.0,0.0,96,0.00,,,0.02,WeatherCatV1.21B27,2013-09-21 12:52:00,
2013-09-21 08:57:00,66.0,64.8,29.75,ENE,67,0.0,0.0,96,0.00,,,0.02,WeatherCatV1.21B27,2013-09-21 12:57:00,
2013-09-21 09:02:00,66.1,64.9,29.75,ENE,67,0.0,0.0,96,0.00,,,0.02,WeatherCatV1.21B27,2013-09-21 13:02:00,
2013-09-21 09:07:00,66.1,64.9,29.75,ENE,67,0.0,0.0,96,0.00,,,0.03,WeatherCatV1.21B27,2013-09-21 13:07:00,
2013-09-21 09:12:00,66.2,65.0,29.75,ENE,67,0.0,0.0,96,0.00,,,0.03,WeatherCatV1.21B27,2013-09-21 13:12:00,
2013-09-21 09:17:00,66.2,65.0,29.75,ENE,67,0.0,0.0,96,0.00,,,0.03,WeatherCatV1.21B27,2013-09-21 13:17:00,
2013-09-21 09:22:00,66.3,65.1,29.75,ENE,67,0.0,0.0,96,0.00,,,0.03,WeatherCatV1.21B27,2013-09-21 13:22:00,
2013-09-21 09:27:00,66.4,65.2,29.75,ENE,67,0.0,0.0,96,0.00,,,0.03,WeatherCatV1.21B27,2013-09-21 13:27:00,
2013-09-21 09:32:00,66.5,65.3,29.75,ENE,67,0.0,2.0,96,0.00,,,0.03,WeatherCatV1.21B27,2013-09-21 13:32:00,
2013-09-21 09:37:00,66.5,65.3,29.75,ENE,67,0.0,0.0,96,0.00,,,0.03,WeatherCatV1.21B27,2013-09-21 13:37:00,
2013-09-21 09:42:00,66.6,65.4,29.75,ENE,67,0.0,0.0,96,0.00,,,0.03,WeatherCatV1.21B27,2013-09-21 13:42:00,
2013-09-21 09:47:00,66.7,65.5,29.75,ENE,67,0.0,0.0,96,0.00,,,0.04,WeatherCatV1.21B27,2013-09-21 13:47:00,
2013-09-21 09:52:00,66.8,65.6,29.75,ENE,67,0.0,0.0,96,0.00,,,0.04,WeatherCatV1.21B27,2013-09-21 13:52:00,
2013-09-21 09:57:00,66.8,65.6,29.75,ENE,67,0.0,0.0,96,0.00,,,0.04,WeatherCatV1.21B27,2013-09-21 13:57:00,
2013-09-21 10:02:00,66.8,65.6,29.75,ENE,67,1.0,3.0,96,0.00,,,0.04,WeatherCatV1.21B27,2013-09-21 14:02:00,
2013-09-21 10:07:00,66.9,65.7,29.75,ENE,67,1.0,2.0,96,0.00,,,0.05,WeatherCatV1.21B27,2013-09-21 14:07:00,
2013-09-21 10:12:00,66.9,65.7,29.75,ENE,67,0.0,0.0,96,0.00,,,0.05,WeatherCatV1.21B27,2013-09-21 14:12:00,
2013-09-21 10:17:00,66.9,65.7,29.75,ENE,67,0.0,0.0,96,0.00,,,0.05,WeatherCatV1.21B27,2013-09-21 14:17:00,
2013-09-21 10:22:00,67.0,65.8,29.75,ENE,67,0.0,0.0,96,0.00,,,0.05,WeatherCatV1.21B27,2013-09-21 14:22:00,
2013-09-21 10:27:00,67.1,65.9,29.75,ENE,67,0.0,0.0,96,0.00,,,0.05,WeatherCatV1.21B27,2013-09-21 14:27:00,
2013-09-21 10:32:00,67.2,66.0,29.75,ENE,67,0.0,0.0,96,0.00,,,0.06,WeatherCatV1.21B27,2013-09-21 14:32:00,
2013-09-21 10:37:00,67.2,66.0,29.75,ENE,67,0.0,0.0,96,0.00,,,0.06,WeatherCatV1.21B27,2013-09-21 14:37:00,
2013-09-21 10:42:00,67.3,66.1,29.74,ENE,67,0.0,0.0,96,0.00,,,0.06,WeatherCatV1.21B27,2013-09-21 14:42:00,
2013-09-21 10:47:00,67.5,66.3,29.75,ENE,67,0.0,0.0,96,0.00,,,0.06,WeatherCatV1.21B27,2013-09-21 14:47:00,
2013-09-21 10:52:00,67.5,66.3,29.74,ENE,67,0.0,0.0,96,0.00,,,0.06,WeatherCatV1.21B27,2013-09-21 14:52:00,
2013-09-21 10:57:00,67.6,66.4,29.74,ENE,67,0.0,0.0,96,0.00,,,0.06,WeatherCatV1.21B27,2013-09-21 14:57:00,
2013-09-21 11:02:00,67.6,66.4,29.74,ENE,67,0.0,2.0,96,0.00,,,0.06,WeatherCatV1.21B27,2013-09-21 15:02:00,
2013-09-21 11:07:00,67.6,66.4,29.74,ENE,67,1.0,2.0,96,0.00,,,0.06,WeatherCatV1.21B27,2013-09-21 15:07:00,
2013-09-21 11:12:00,67.7,66.5,29.74,ENE,67,0.0,2.0,96,0.00,,,0.06,WeatherCatV1.21B27,2013-09-21 15:12:00,
2013-09-21 11:17:00,67.7,66.5,29.74,ENE,67,0.0,0.0,96,0.00,,,0.06,WeatherCatV1.21B27,2013-09-21 15:17:00,
2013-09-21 11:22:00,67.9,66.7,29.74,ENE,67,1.0,3.0,96,0.00,,,0.07,WeatherCatV1.21B27,2013-09-21 15:22:00,
2013-09-21 11:27:00,67.8,66.3,29.74,SSE,157,4.0,4.0,95,0.00,,,0.07,WeatherCatV1.21B27,2013-09-21 15:27:00,
2013-09-21 11:32:00,67.9,66.4,29.74,SSE,157,1.0,4.0,95,0.00,,,0.07,WeatherCatV1.21B27,2013-09-21 15:32:00,
2013-09-21 11:37:00,67.9,66.4,29.74,SSE,157,2.0,4.0,95,0.00,,,0.07,WeatherCatV1.21B27,2013-09-21 15:37:00,
2013-09-21 11:47:00,67.9,66.4,29.73,South,182,2.0,6.0,95,0.00,,,0.08,WeatherCatV1.21B27,2013-09-21 15:47:00,
2013-09-21 11:52:00,68.0,66.5,29.73,South,170,4.0,5.0,95,0.06,,,0.09,WeatherCatV1.21B27,2013-09-21 15:52:00,
2013-09-21 11:57:00,68.0,66.5,29.73,South,179,0.0,2.0,95,0.08,,,0.10,WeatherCatV1.21B27,2013-09-21 15:57:00,
2013-09-21 12:02:00,68.0,66.5,29.73,ESE,119,6.0,8.0,95,0.08,,,0.10,WeatherCatV1.21B27,2013-09-21 16:02:00,
2013-09-21 12:07:00,68.0,66.5,29.72,South,184,3.0,7.0,95,0.07,,,0.11,WeatherCatV1.21B27,2013-09-21 16:07:00,
2013-09-21 12:12:00,68.1,66.6,29.72,SSE,151,4.0,6.0,95,0.07,,,0.11,WeatherCatV1.21B27,2013-09-21 16:12:00,
2013-09-21 12:17:00,68.1,66.6,29.72,SSE,152,7.0,7.0,95,0.05,,,0.11,WeatherCatV1.21B27,2013-09-21 16:17:00,
2013-09-21 12:22:00,68.1,66.6,29.72,SE,142,5.0,8.0,95,0.04,,,0.12,WeatherCatV1.21B27,2013-09-21 16:22:00,
2013-09-21 12:27:00,67.9,66.1,29.71,SSE,164,5.0,10.0,94,0.08,,,0.13,WeatherCatV1.21B27,2013-09-21 16:27:00,
2013-09-21 12:32:00,68.0,66.5,29.71,SSE,163,5.0,6.0,95,0.08,,,0.13,WeatherCatV1.21B27,2013-09-21 16:32:00,
2013-09-21 12:37:00,68.0,66.5,29.71,SE,146,2.0,6.0,95,0.06,,,0.13,WeatherCatV1.21B27,2013-09-21 16:37:00,
2013-09-21 12:42:00,68.0,66.5,29.70,South,169,4.0,9.0,95,0.05,,,0.14,WeatherCatV1.21B27,2013-09-21 16:42:00,
2013-09-21 12:47:00,68.0,66.5,29.70,SSE,147,6.0,6.0,95,0.05,,,0.14,WeatherCatV1.21B27,2013-09-21 16:47:00,
2013-09-21 12:52:00,68.0,66.5,29.70,SE,144,0.0,5.0,95,0.04,,,0.14,WeatherCatV1.21B27,2013-09-21 16:52:00,
2013-09-21 12:57:00,67.9,66.4,29.69,South,184,2.0,8.0,95,0.00,,,0.15,WeatherCatV1.21B27,2013-09-21 16:57:00,
2013-09-21 13:02:00,67.9,66.4,29.69,SSE,147,5.0,5.0,95,0.00,,,0.15,WeatherCatV1.21B27,2013-09-21 17:02:00,
2013-09-21 13:07:00,67.8,66.3,29.69,SE,140,4.0,6.0,95,0.06,,,0.16,WeatherCatV1.21B27,2013-09-21 17:07:00,
2013-09-21 13:12:00,67.8,66.3,29.69,South,171,4.0,6.0,95,0.41,,,0.19,WeatherCatV1.21B27,2013-09-21 17:12:00,
2013-09-21 13:17:00,67.7,66.2,29.69,SSE,152,2.0,5.0,95,0.38,,,0.22,WeatherCatV1.21B27,2013-09-21 17:17:00,
2013-09-21 13:22:00,67.6,66.1,29.69,SE,140,4.0,6.0,95,0.33,,,0.24,WeatherCatV1.21B27,2013-09-21 17:22:00,
2013-09-21 13:27:00,67.6,66.1,29.68,SE,140,5.0,5.0,95,0.16,,,0.25,WeatherCatV1.21B27,2013-09-21 17:27:00,
2013-09-21 13:32:00,67.6,66.1,29.68,South,183,0.0,2.0,95,0.25,,,0.27,WeatherCatV1.21B27,2013-09-21 17:32:00,
2013-09-21 13:37:00,67.6,66.1,29.68,ESE,107,2.0,4.0,95,0.20,,,0.29,WeatherCatV1.21B27,2013-09-21 17:37:00,
2013-09-21 13:42:00,67.5,66.0,29.68,SE,127,4.0,4.0,95,0.67,,,0.33,WeatherCatV1.21B27,2013-09-21 17:42:00,
2013-09-21 13:47:00,67.4,65.9,29.67,SE,127,1.0,4.0,95,0.41,,,0.39,WeatherCatV1.21B27,2013-09-21 17:47:00,
2013-09-21 13:52:00,67.3,65.8,29.67,SE,135,2.0,4.0,95,0.44,,,0.42,WeatherCatV1.21B27,2013-09-21 17:52:00,
2013-09-21 13:57:00,67.2,66.0,29.66,SE,136,1.0,6.0,96,0.26,,,0.44,WeatherCatV1.21B27,2013-09-21 17:57:00,
2013-09-21 14:02:00,67.2,66.0,29.67,SSE,150,4.0,6.0,96,0.45,,,0.46,WeatherCatV1.21B27,2013-09-21 18:02:00,
2013-09-21 14:07:00,67.2,66.0,29.66,SE,125,1.0,4.0,96,0.31,,,0.49,WeatherCatV1.21B27,2013-09-21 18:07:00,
2013-09-21 14:12:00,67.2,66.0,29.66,SE,135,6.0,6.0,96,0.16,,,0.50,WeatherCatV1.21B27,2013-09-21 18:12:00,
2013-09-21 14:17:00,67.2,66.0,29.65,ESE,121,4.0,5.0,96,0.11,,,0.51,WeatherCatV1.21B27,2013-09-21 18:17:00,
2013-09-21 14:22:00,67.2,66.0,29.65,South,173,4.0,8.0,96,0.13,,,0.52,WeatherCatV1.21B27,2013-09-21 18:22:00,
2013-09-21 14:27:00,67.2,66.0,29.65,South,170,10.0,15.0,96,0.13,,,0.53,WeatherCatV1.21B27,2013-09-21 18:27:00,
2013-09-21 14:32:00,67.2,66.0,29.65,SSE,147,5.0,5.0,96,0.21,,,0.55,WeatherCatV1.21B27,2013-09-21 18:32:00,
2013-09-21 14:37:00,67.3,66.1,29.65,SE,138,2.0,9.0,96,0.15,,,0.56,WeatherCatV1.21B27,2013-09-21 18:37:00,
2013-09-21 14:42:00,67.4,66.2,29.65,South,169,8.0,9.0,96,0.15,,,0.57,WeatherCatV1.21B27,2013-09-21 18:42:00,
2013-09-21 14:47:00,67.5,66.3,29.64,South,178,10.0,12.0,96,0.20,,,0.59,WeatherCatV1.21B27,2013-09-21 18:47:00,
2013-09-21 14:52:00,67.6,66.4,29.64,SSE,155,6.0,7.0,96,0.21,,,0.60,WeatherCatV1.21B27,2013-09-21 18:52:00,
2013-09-21 14:57:00,67.6,66.4,29.64,SSE,157,6.0,10.0,96,0.19,,,0.62,WeatherCatV1.21B27,2013-09-21 18:57:00,
2013-09-21 15:02:00,67.6,66.7,29.64,SE,144,1.0,8.0,97,0.16,,,0.63,WeatherCatV1.21B27,2013-09-21 19:02:00,
2013-09-21 15:07:00,67.7,66.8,29.63,South,190,6.0,6.0,97,0.26,,,0.65,WeatherCatV1.21B27,2013-09-21 19:07:00,
2013-09-21 15:12:00,67.8,66.9,29.63,South,184,2.0,3.0,97,0.28,,,0.67,WeatherCatV1.21B27,2013-09-21 19:12:00,
2013-09-21 15:17:00,67.9,67.0,29.63,SE,144,4.0,8.0,97,0.25,,,0.69,WeatherCatV1.21B27,2013-09-21 19:17:00,
2013-09-21 15:22:00,67.9,67.0,29.63,SSE,167,8.0,8.0,97,0.23,,,0.71,WeatherCatV1.21B27,2013-09-21 19:22:00,
2013-09-21 15:27:00,68.0,67.1,29.62,SSE,167,7.0,11.0,97,0.14,,,0.72,WeatherCatV1.21B27,2013-09-21 19:27:00,
2013-09-21 15:32:00,68.0,66.8,29.63,SSW,201,4.0,5.0,96,0.46,,,0.75,WeatherCatV1.21B27,2013-09-21 19:32:00,
2013-09-21 15:37:00,68.1,66.9,29.63,WNW,294,4.0,8.0,96,0.29,,,0.77,WeatherCatV1.21B27,2013-09-21 19:37:00,
2013-09-21 15:42:00,67.9,66.7,29.62,SW,223,1.0,5.0,96,0.56,,,0.83,WeatherCatV1.21B27,2013-09-21 19:42:00,
2013-09-21 15:47:00,67.5,66.3,29.62,NW,307,1.0,4.0,96,0.10,,,0.83,WeatherCatV1.21B27,2013-09-21 19:47:00,
2013-09-21 15:52:00,67.4,66.2,29.62,WNW,300,1.0,4.0,96,0.09,,,0.84,WeatherCatV1.21B27,2013-09-21 19:52:00,
2013-09-21 15:57:00,67.3,65.8,29.61,WNW,300,1.0,1.0,95,0.06,,,0.84,WeatherCatV1.21B27,2013-09-21 19:57:00,
2013-09-21 16:02:00,67.3,66.1,29.60,NW,313,1.0,4.0,96,0.05,,,0.85,WeatherCatV1.21B27,2013-09-21 20:02:00,
2013-09-21 16:07:00,67.5,66.3,29.61,NW,311,4.0,5.0,96,0.05,,,0.85,WeatherCatV1.21B27,2013-09-21 20:07:00,
2013-09-21 16:12:00,67.5,66.3,29.61,NW,308,2.0,2.0,96,0.05,,,0.85,WeatherCatV1.21B27,2013-09-21 20:12:00,
2013-09-21 16:17:00,67.6,66.4,29.61,NW,308,1.0,4.0,96,0.04,,,0.85,WeatherCatV1.21B27,2013-09-21 20:17:00,
2013-09-21 16:22:00,67.4,65.9,29.60,WSW,253,0.0,3.0,95,0.00,,,0.85,WeatherCatV1.21B27,2013-09-21 20:22:00,
2013-09-21 16:27:00,67.5,66.0,29.61,WSW,240,1.0,3.0,95,0.00,,,0.85,WeatherCatV1.21B27,2013-09-21 20:27:00,
2013-09-21 16:37:00,67.5,66.0,29.63,SW,222,0.0,4.0,95,0.00,,,0.85,WeatherCatV1.21B27,2013-09-21 20:37:00,
2013-09-21 16:42:00,67.4,65.9,29.62,North,0,2.0,7.0,95,0.00,,,0.85,WeatherCatV1.21B27,2013-09-21 20:42:00,
2013-09-21 16:47:00,67.2,65.4,29.61,NW,319,0.0,5.0,94,0.00,,,0.85,WeatherCatV1.21B27,2013-09-21 20:47:00,
2013-09-21 16:52:00,67.2,65.4,29.61,NW,319,0.0,1.0,94,0.00,,,0.85,WeatherCatV1.21B27,2013-09-21 20:52:00,
2013-09-21 16:57:00,67.2,65.4,29.61,NW,319,1.0,4.0,94,0.00,,,0.85,WeatherCatV1.21B27,2013-09-21 20:57:00,
2013-09-21 17:02:00,67.2,65.7,29.61,NW,319,2.0,4.0,95,0.00,,,0.85,WeatherCatV1.21B27,2013-09-21 21:02:00,
2013-09-21 17:07:00,67.4,65.9,29.61,NW,319,1.0,5.0,95,0.00,,,0.85,WeatherCatV1.21B27,2013-09-21 21:07:00,
2013-09-21 17:12:00,67.3,65.8,29.61,NW,319,0.0,1.0,95,0.00,,,0.85,WeatherCatV1.21B27,2013-09-21 21:12:00,
2013-09-21 17:17:00,67.4,65.9,29.61,NW,319,1.0,2.0,95,0.00,,,0.85,WeatherCatV1.21B27,2013-09-21 21:17:00,
2013-09-21 17:22:00,67.4,65.6,29.61,NW,318,2.0,4.0,94,0.00,,,0.85,WeatherCatV1.21B27,2013-09-21 21:22:00,
2013-09-21 17:27:00,67.3,65.5,29.61,NW,317,2.0,5.0,94,0.00,,,0.85,WeatherCatV1.21B27,2013-09-21 21:27:00,
2013-09-21 17:32:00,67.2,65.4,29.61,SSW,193,6.0,6.0,94,0.00,,,0.85,WeatherCatV1.21B27,2013-09-21 21:32:00,
2013-09-21 17:37:00,67.0,64.9,29.61,NW,319,4.0,8.0,93,0.00,,,0.85,WeatherCatV1.21B27,2013-09-21 21:37:00,
2013-09-21 17:42:00,66.8,64.4,29.61,NNW,331,7.0,7.0,92,0.00,,,0.85,WeatherCatV1.21B27,2013-09-21 21:42:00,
2013-09-21 17:47:00,66.7,64.3,29.61,NW,323,1.0,2.0,92,0.00,,,0.85,WeatherCatV1.21B27,2013-09-21 21:47:00,
2013-09-21 17:52:00,66.7,64.6,29.61,NW,323,2.0,4.0,93,0.00,,,0.85,WeatherCatV1.21B27,2013-09-21 21:52:00,
2013-09-21 17:57:00,66.6,64.5,29.62,NW,323,1.0,6.0,93,0.00,,,0.85,WeatherCatV1.21B27,2013-09-21 21:57:00,
2013-09-21 18:02:00,66.6,64.5,29.62,NW,321,0.0,0.0,93,0.00,,,0.85,WeatherCatV1.21B27,2013-09-21 22:02:00,
2013-09-21 18:07:00,66.5,64.4,29.62,NW,321,0.0,2.0,93,0.00,,,0.85,WeatherCatV1.21B27,2013-09-21 22:07:00,
2013-09-21 18:12:00,66.5,64.4,29.62,NW,321,4.0,4.0,93,0.00,,,0.85,WeatherCatV1.21B27,2013-09-21 22:12:00,
2013-09-21 18:17:00,66.5,64.7,29.62,NW,321,2.0,2.0,94,0.00,,,0.85,WeatherCatV1.21B27,2013-09-21 22:17:00,
2013-09-21 18:22:00,66.4,64.3,29.62,NW,316,2.0,5.0,93,0.00,,,0.85,WeatherCatV1.21B27,2013-09-21 22:22:00,
2013-09-21 18:27:00,66.2,64.4,29.63,SW,234,1.0,2.0,94,0.00,,,0.85,WeatherCatV1.21B27,2013-09-21 22:27:00,
2013-09-21 18:32:00,66.2,64.4,29.62,West,261,3.0,3.0,94,0.00,,,0.85,WeatherCatV1.21B27,2013-09-21 22:32:00,
2013-09-21 18:37:00,66.1,64.0,29.62,WSW,257,3.0,4.0,93,0.00,,,0.85,WeatherCatV1.21B27,2013-09-21 22:37:00,
2013-09-21 18:42:00,66.1,63.7,29.62,NW,309,5.0,5.0,92,0.00,,,0.85,WeatherCatV1.21B27,2013-09-21 22:42:00,
2013-09-21 18:47:00,66.2,64.1,29.62,NW,309,1.0,1.0,93,0.00,,,0.85,WeatherCatV1.21B27,2013-09-21 22:47:00,
2013-09-21 18:52:00,66.1,64.0,29.62,NW,309,0.0,2.0,93,0.00,,,0.85,WeatherCatV1.21B27,2013-09-21 22:52:00,
2013-09-21 18:57:00,66.0,64.2,29.62,WNW,296,6.0,6.0,94,0.00,,,0.85,WeatherCatV1.21B27,2013-09-21 22:57:00,
2013-09-21 19:02:00,65.8,64.0,29.63,WNW,298,1.0,2.0,94,0.00,,,0.85,WeatherCatV1.21B27,2013-09-21 23:02:00,
2013-09-21 19:07:00,65.6,63.8,29.62,WNW,298,1.0,2.0,94,0.00,,,0.85,WeatherCatV1.21B27,2013-09-21 23:07:00,
2013-09-21 19:12:00,65.4,63.6,29.62,WNW,298,1.0,2.0,94,0.00,,,0.85,WeatherCatV1.21B27,2013-09-21 23:12:00,
2013-09-21 19:17:00,65.2,63.4,29.62,WNW,298,1.0,5.0,94,0.00,,,0.85,WeatherCatV1.21B27,2013-09-21 23:17:00,
2013-09-21 19:22:00,65.1,63.3,29.62,WNW,298,2.0,2.0,94,0.00,,,0.85,WeatherCatV1.21B27,2013-09-21 23:22:00,
2013-09-21 19:27:00,65.0,63.5,29.62,WNW,296,2.0,5.0,95,0.00,,,0.85,WeatherCatV1.21B27,2013-09-21 23:27:00,
2013-09-21 19:32:00,64.8,63.3,29.62,WNW,296,0.0,2.0,95,0.00,,,0.85,WeatherCatV1.21B27,2013-09-21 23:32:00,
2013-09-21 19:37:00,64.7,63.2,29.63,WNW,296,4.0,5.0,95,0.00,,,0.85,WeatherCatV1.21B27,2013-09-21 23:37:00,
2013-09-21 19:42:00,64.5,62.7,29.63,WNW,291,2.0,6.0,94,0.00,,,0.85,WeatherCatV1.21B27,2013-09-21 23:42:00,
2013-09-21 19:47:00,64.5,62.7,29.63,NW,311,4.0,6.0,94,0.00,,,0.85,WeatherCatV1.21B27,2013-09-21 23:47:00,
2013-09-21 19:52:00,64.5,62.7,29.63,NW,308,5.0,6.0,94,0.00,,,0.85,WeatherCatV1.21B27,2013-09-21 23:52:00,
2013-09-21 19:57:00,64.5,62.7,29.63,NW,308,5.0,5.0,94,0.00,,,0.85,WeatherCatV1.21B27,2013-09-21 23:57:00,
2013-09-21 20:02:00,64.3,62.5,29.63,NW,307,5.0,6.0,94,0.00,,,0.85,WeatherCatV1.21B27,2013-09-22 00:02:00,
2013-09-21 20:07:00,64.0,62.2,29.63,NW,305,6.0,7.0,94,0.00,,,0.85,WeatherCatV1.21B27,2013-09-22 00:07:00,
2013-09-21 20:12:00,64.0,62.2,29.64,NW,307,6.0,6.0,94,0.00,,,0.85,WeatherCatV1.21B27,2013-09-22 00:12:00,
2013-09-21 20:17:00,64.1,62.6,29.64,NW,307,2.0,5.0,95,0.00,,,0.85,WeatherCatV1.21B27,2013-09-22 00:17:00,
2013-09-21 20:22:00,64.0,62.5,29.64,NW,307,4.0,5.0,95,0.00,,,0.85,WeatherCatV1.21B27,2013-09-22 00:22:00,
2013-09-21 20:27:00,63.8,62.3,29.65,NW,307,4.0,4.0,95,0.00,,,0.85,WeatherCatV1.21B27,2013-09-22 00:27:00,
2013-09-21 20:32:00,63.6,62.1,29.65,NW,307,2.0,4.0,95,0.00,,,0.85,WeatherCatV1.21B27,2013-09-22 00:32:00,
2013-09-21 20:37:00,63.3,61.8,29.65,NW,307,2.0,5.0,95,0.00,,,0.85,WeatherCatV1.21B27,2013-09-22 00:37:00,
2013-09-21 20:42:00,63.2,61.7,29.65,NW,307,5.0,5.0,95,0.00,,,0.85,WeatherCatV1.21B27,2013-09-22 00:42:00,
2013-09-21 20:47:00,63.1,61.6,29.65,NW,307,4.0,5.0,95,0.00,,,0.85,WeatherCatV1.21B27,2013-09-22 00:47:00,
2013-09-21 20:52:00,63.0,61.8,29.65,NW,307,4.0,4.0,96,0.00,,,0.85,WeatherCatV1.21B27,2013-09-22 00:52:00,
2013-09-21 20:57:00,62.9,61.4,29.65,NW,307,6.0,6.0,95,0.00,,,0.85,WeatherCatV1.21B27,2013-09-22 00:57:00,
2013-09-21 21:07:00,63.1,61.6,29.66,NW,306,5.0,9.0,95,0.00,,,0.85,WeatherCatV1.21B27,2013-09-22 01:07:00,
2013-09-21 21:12:00,63.2,61.4,29.66,NW,305,5.0,6.0,94,0.00,,,0.85,WeatherCatV1.21B27,2013-09-22 01:12:00,
2013-09-21 21:17:00,63.3,61.5,29.66,NW,306,5.0,9.0,94,0.00,,,0.85,WeatherCatV1.21B27,2013-09-22 01:17:00,
2013-09-21 21:22:00,63.6,61.5,29.66,NW,306,4.0,4.0,93,0.00,,,0.85,WeatherCatV1.21B27,2013-09-22 01:22:00,
2013-09-21 21:27:00,63.4,61.6,29.66,NW,306,1.0,4.0,94,0.00,,,0.85,WeatherCatV1.21B27,2013-09-22 01:27:00,
2013-09-21 21:32:00,63.2,61.4,29.66,WNW,300,1.0,2.0,94,0.00,,,0.85,WeatherCatV1.21B27,2013-09-22 01:32:00,
2013-09-21 21:37:00,63.0,61.2,29.66,WNW,289,2.0,6.0,94,0.00,,,0.85,WeatherCatV1.21B27,2013-09-22 01:37:00,
2013-09-21 21:42:00,62.9,60.8,29.66,WNW,294,5.0,6.0,93,0.00,,,0.85,WeatherCatV1.21B27,2013-09-22 01:42:00,
2013-09-21 21:47:00,63.0,60.9,29.66,WNW,294,5.0,5.0,93,0.00,,,0.85,WeatherCatV1.21B27,2013-09-22 01:47:00,
2013-09-21 21:52:00,63.0,60.9,29.66,WNW,296,0.0,4.0,93,0.00,,,0.85,WeatherCatV1.21B27,2013-09-22 01:52:00,
2013-09-21 21:57:00,63.0,60.9,29.67,WNW,296,0.0,4.0,93,0.00,,,0.85,WeatherCatV1.21B27,2013-09-22 01:57:00,
2013-09-21 22:02:00,62.9,60.8,29.67,WNW,296,1.0,1.0,93,0.00,,,0.85,WeatherCatV1.21B27,2013-09-22 02:02:00,
2013-09-21 22:07:00,62.8,60.7,29.67,WNW,296,0.0,2.0,93,0.00,,,0.85,WeatherCatV1.21B27,2013-09-22 02:07:00,
2013-09-21 22:12:00,62.7,60.9,29.66,WNW,296,0.0,0.0,94,0.00,,,0.85,WeatherCatV1.21B27,2013-09-22 02:12:00,
2013-09-21 22:17:00,62.6,60.8,29.66,WNW,296,1.0,1.0,94,0.00,,,0.85,WeatherCatV1.21B27,2013-09-22 02:17:00,
2013-09-21 22:22:00,62.4,60.7,29.67,WNW,296,1.0,4.0,94,0.00,,,0.85,WeatherCatV1.21B27,2013-09-22 02:22:00,
2013-09-21 22:27:00,62.2,60.5,29.67,WNW,296,0.0,0.0,94,0.00,,,0.85,WeatherCatV1.21B27,2013-09-22 02:27:00,
2013-09-21 22:32:00,62.1,60.3,29.68,WNW,296,0.0,0.0,94,0.00,,,0.85,WeatherCatV1.21B27,2013-09-22 02:32:00,
2013-09-21 22:37:00,62.0,60.2,29.67,WNW,296,0.0,0.0,94,0.00,,,0.85,WeatherCatV1.21B27,2013-09-22 02:37:00,
2013-09-21 22:42:00,61.8,60.3,29.68,WNW,296,0.0,0.0,95,0.00,,,0.85,WeatherCatV1.21B27,2013-09-22 02:42:00,
2013-09-21 22:47:00,61.7,60.2,29.67,WNW,296,0.0,0.0,95,0.00,,,0.85,WeatherCatV1.21B27,2013-09-22 02:47:00,
2013-09-21 22:52:00,61.6,60.2,29.68,WNW,296,0.0,0.0,95,0.00,,,0.85,WeatherCatV1.21B27,2013-09-22 02:52:00,
2013-09-21 22:57:00,61.5,60.0,29.68,WNW,296,1.0,1.0,95,0.00,,,0.85,WeatherCatV1.21B27,2013-09-22 02:57:00,
2013-09-21 23:02:00,61.4,60.0,29.68,WNW,296,5.0,5.0,95,0.00,,,0.85,WeatherCatV1.21B27,2013-09-22 03:02:00,
2013-09-21 23:07:00,61.4,60.0,29.67,WNW,296,4.0,5.0,95,0.00,,,0.85,WeatherCatV1.21B27,2013-09-22 03:07:00,
2013-09-21 23:12:00,61.4,60.2,29.67,WNW,296,1.0,2.0,96,0.00,,,0.85,WeatherCatV1.21B27,2013-09-22 03:12:00,
2013-09-21 23:17:00,61.4,60.2,29.67,WNW,296,0.0,0.0,96,0.00,,,0.85,WeatherCatV1.21B27,2013-09-22 03:17:00,
2013-09-21 23:22:00,61.3,60.2,29.67,WNW,296,0.0,0.0,96,0.00,,,0.85,WeatherCatV1.21B27,2013-09-22 03:22:00,
2013-09-21 23:27:00,61.3,60.2,29.67,WNW,296,1.0,4.0,96,0.00,,,0.85,WeatherCatV1.21B27,2013-09-22 03:27:00,
2013-09-21 23:32:00,61.2,60.0,29.68,NNW,336,1.0,4.0,96,0.00,,,0.85,WeatherCatV1.21B27,2013-09-22 03:32:00,
2013-09-21 23:37:00,61.2,60.0,29.67,NW,319,6.0,8.0,96,0.00,,,0.85,WeatherCatV1.21B27,2013-09-22 03:37:00,
2013-09-21 23:42:00,61.5,60.0,29.67,NW,312,4.0,6.0,95,0.00,,,0.85,WeatherCatV1.21B27,2013-09-22 03:42:00,
2013-09-21 23:47:00,61.6,60.2,29.67,NW,312,1.0,4.0,95,0.00,,,0.85,WeatherCatV1.21B27,2013-09-22 03:47:00,
2013-09-21 23:52:00,61.7,60.2,29.68,WNW,300,0.0,2.0,95,0.00,,,0.85,WeatherCatV1.21B27,2013-09-22 03:52:00,
2013-09-21 23:57:00,61.5,59.8,29.67,WNW,300,0.0,2.0,94,0.00,,,0.85,WeatherCatV1.21B27,2013-09-22 03:57:00,